createdAt,value
2022-08-28T00:00:26.040Z,25.58
2022-08-28T00:02:53.403Z,25.62
2022-08-28T00:05:21.541Z,25.57
2022-08-28T00:07:48.232Z,25.63
2022-08-28T00:10:16.882Z,25.65
2022-08-28T00:12:45.444Z,25.58
2022-08-28T00:15:15.236Z,25.47
2022-08-28T00:17:42.289Z,25.35
2022-08-28T00:20:10.675Z,25.37
2022-08-28T00:22:38.517Z,25.34
2022-08-28T00:25:11.381Z,25.46
2022-08-28T00:27:53.057Z,25.67
2022-08-28T00:30:41.875Z,25.77
2022-08-28T00:33:22.349Z,25.79
2022-08-28T00:35:50.186Z,25.78
2022-08-28T00:38:19.979Z,25.64
2022-08-28T00:40:50.441Z,25.51
2022-08-28T00:43:58.749Z,25.40
2022-08-28T00:46:25.423Z,25.37
2022-08-28T00:48:52.034Z,25.45
2022-08-28T00:51:38.820Z,25.57
2022-08-28T00:54:07.990Z,25.68
2022-08-28T00:56:37.508Z,25.73
2022-08-28T00:59:09.529Z,25.71
2022-08-28T01:01:36.652Z,25.69
2022-08-28T01:04:06.208Z,25.56
2022-08-28T01:06:36.819Z,25.50
2022-08-28T01:09:06.385Z,25.44
2022-08-28T01:11:33.437Z,25.40
2022-08-28T01:14:02.942Z,25.32
2022-08-28T01:16:34.068Z,25.44
2022-08-28T01:19:04.346Z,25.57
2022-08-28T01:21:39.972Z,25.57
2022-08-28T01:24:11.729Z,25.67
2022-08-28T01:26:38.542Z,25.64
2022-08-28T01:29:07.225Z,25.54
2022-08-28T01:31:34.593Z,25.41
2022-08-28T01:34:02.595Z,25.41
2022-08-28T01:36:29.776Z,25.36
2022-08-28T01:39:04.239Z,25.35
2022-08-28T01:41:31.008Z,25.47
2022-08-28T01:43:57.665Z,25.52
2022-08-28T01:46:24.345Z,25.55
2022-08-28T01:48:51.003Z,25.57
2022-08-28T01:51:20.476Z,25.57
2022-08-28T01:53:50.588Z,25.51
2022-08-28T01:56:17.735Z,25.38
2022-08-28T01:58:45.326Z,25.39
2022-08-28T02:01:13.755Z,25.35
2022-08-28T02:03:43.135Z,25.34
2022-08-28T02:06:11.156Z,25.27
2022-08-28T02:08:38.054Z,25.19
2022-08-28T02:11:07.440Z,25.19
2022-08-28T02:13:36.131Z,25.15
2022-08-28T02:16:06.045Z,25.14
2022-08-28T02:18:33.098Z,25.10
2022-08-28T02:20:59.708Z,25.07
2022-08-28T02:23:26.355Z,25.06
2022-08-28T02:25:53.014Z,25.02
2022-08-28T02:28:19.637Z,24.98
2022-08-28T02:30:46.389Z,24.99
2022-08-28T02:33:13.086Z,24.97
2022-08-28T02:35:42.507Z,25.02
2022-08-28T02:38:10.398Z,24.98
2022-08-28T02:40:38.550Z,25.04
2022-08-28T02:43:05.884Z,25.00
2022-08-28T02:45:34.517Z,25.02
2022-08-28T02:48:02.047Z,25.05
2022-08-28T02:50:30.518Z,25.01
2022-08-28T02:52:57.755Z,24.93
2022-08-28T02:55:25.201Z,24.98
2022-08-28T02:57:52.753Z,25.00
2022-08-28T03:00:22.513Z,24.96
2022-08-28T03:02:50.355Z,24.94
2022-08-28T03:05:21.018Z,24.94
2022-08-28T03:07:48.753Z,24.96
2022-08-28T03:10:15.541Z,24.98
2022-08-28T03:12:42.405Z,25.01
2022-08-28T03:15:09.587Z,24.92
2022-08-28T03:17:36.964Z,24.95
2022-08-28T03:20:08.687Z,24.91
2022-08-28T03:22:54.690Z,24.88
2022-08-28T03:25:22.427Z,24.89
2022-08-28T03:27:49.673Z,24.93
2022-08-28T03:30:16.677Z,24.93
2022-08-28T03:32:43.512Z,24.95
2022-08-28T03:35:10.417Z,24.91
2022-08-28T03:37:37.078Z,24.93
2022-08-28T03:40:05.301Z,24.90
2022-08-28T03:42:31.986Z,24.86
2022-08-28T03:44:59.185Z,24.86
2022-08-28T03:47:28.308Z,24.83
2022-08-28T03:49:57.344Z,24.83
2022-08-28T03:52:24.741Z,24.84
2022-08-28T03:54:52.692Z,24.81
2022-08-28T03:57:21.951Z,24.82
2022-08-28T03:59:50.380Z,24.83
2022-08-28T04:02:19.403Z,24.81
2022-08-28T04:04:50.616Z,24.87
2022-08-28T04:07:18.704Z,24.84
2022-08-28T04:09:46.336Z,24.83
2022-08-28T04:12:13.139Z,24.85
2022-08-28T04:14:39.785Z,24.80
2022-08-28T04:17:07.215Z,24.81
2022-08-28T04:19:34.459Z,24.77
2022-08-28T04:22:01.306Z,24.80
2022-08-28T04:24:27.952Z,24.79
2022-08-28T04:26:54.613Z,24.81
2022-08-28T04:29:22.565Z,24.81
2022-08-28T04:31:49.782Z,24.79
2022-08-28T04:34:16.430Z,24.81
2022-08-28T04:36:43.116Z,24.78
2022-08-28T04:39:11.112Z,24.79
2022-08-28T04:41:38.786Z,24.79
2022-08-28T04:44:05.829Z,24.80
2022-08-28T04:46:32.523Z,24.76
2022-08-28T04:49:00.022Z,24.76
2022-08-28T04:51:27.208Z,24.78
2022-08-28T04:53:54.081Z,24.76
2022-08-28T04:56:20.725Z,24.72
2022-08-28T04:58:47.704Z,24.74
2022-08-28T05:01:18.808Z,24.74
2022-08-28T05:03:47.925Z,24.77
2022-08-28T05:06:16.197Z,24.77
2022-08-28T05:08:42.988Z,24.78
2022-08-28T05:11:33.695Z,24.78
2022-08-28T05:14:04.540Z,24.75
2022-08-28T05:16:32.650Z,24.69
2022-08-28T05:19:00.980Z,24.69
2022-08-28T05:21:28.261Z,24.65
2022-08-28T05:23:57.463Z,24.68
2022-08-28T05:26:27.067Z,24.62
2022-08-28T05:28:55.952Z,24.64
2022-08-28T05:31:23.876Z,24.66
2022-08-28T05:33:51.862Z,24.66
2022-08-28T05:36:20.277Z,24.68
2022-08-28T05:38:48.501Z,24.70
2022-08-28T05:41:23.214Z,25.10
2022-08-28T05:43:50.395Z,25.34
2022-08-28T05:46:17.806Z,25.44
2022-08-28T05:48:45.809Z,25.60
2022-08-28T05:51:16.660Z,25.79
2022-08-28T05:53:44.732Z,25.73
2022-08-28T05:56:14.501Z,25.73
2022-08-28T05:58:42.313Z,25.67
2022-08-28T06:01:26.789Z,25.60
2022-08-28T06:03:55.549Z,25.71
2022-08-28T06:06:24.751Z,25.74
2022-08-28T06:08:58.927Z,25.78
2022-08-28T06:11:31.007Z,25.81
2022-08-28T06:14:01.897Z,25.80
2022-08-28T06:16:31.442Z,25.78
2022-08-28T06:18:58.246Z,25.76
2022-08-28T06:21:24.869Z,25.75
2022-08-28T06:23:51.965Z,25.78
2022-08-28T06:26:18.856Z,25.82
2022-08-28T06:28:45.727Z,25.80
2022-08-28T06:31:24.464Z,25.78
2022-08-28T06:33:57.617Z,25.76
2022-08-28T06:36:29.092Z,25.75
2022-08-28T06:38:58.521Z,25.74
2022-08-28T06:41:27.321Z,25.72
2022-08-28T06:43:54.711Z,25.68
2022-08-28T06:46:22.115Z,25.66
2022-08-28T06:48:48.782Z,25.66
2022-08-28T06:51:15.431Z,25.62
2022-08-28T06:53:44.528Z,25.62
2022-08-28T06:56:23.651Z,25.64
2022-08-28T06:58:55.727Z,25.60
2022-08-28T07:01:29.727Z,25.55
2022-08-28T07:03:59.922Z,25.53
2022-08-28T07:06:28.161Z,25.55
2022-08-28T07:08:54.770Z,25.51
2022-08-28T07:11:26.330Z,25.49
2022-08-28T07:13:54.418Z,25.41
2022-08-28T07:16:25.130Z,25.38
2022-08-28T07:18:52.283Z,25.36
2022-08-28T07:21:20.493Z,25.31
2022-08-28T07:23:48.137Z,25.21
2022-08-28T07:26:18.520Z,25.18
2022-08-28T07:28:45.679Z,25.22
2022-08-28T07:31:15.328Z,25.36
2022-08-28T07:33:42.492Z,25.40
2022-08-28T07:36:15.995Z,25.54
2022-08-28T07:38:57.341Z,25.54
2022-08-28T07:41:27.638Z,25.47
2022-08-28T07:44:13.087Z,25.56
2022-08-28T07:46:40.867Z,25.48
2022-08-28T07:49:08.808Z,25.47
2022-08-28T07:51:35.571Z,25.38
2022-08-28T07:54:03.977Z,25.38
2022-08-28T07:56:31.253Z,25.41
2022-08-28T07:58:58.882Z,25.36
2022-08-28T08:01:28.913Z,25.37
2022-08-28T08:04:01.337Z,25.41
2022-08-28T08:06:34.361Z,25.50
2022-08-28T08:09:01.981Z,25.43
2022-08-28T08:11:32.270Z,25.47
2022-08-28T08:14:05.618Z,25.55
2022-08-28T08:16:39.072Z,25.56
2022-08-28T08:19:06.505Z,25.60
2022-08-28T08:21:33.196Z,25.59
2022-08-28T08:23:59.795Z,25.56
2022-08-28T08:26:30.396Z,25.49
2022-08-28T08:28:57.501Z,25.31
2022-08-28T08:31:33.581Z,25.39
2022-08-28T08:34:04.425Z,25.40
2022-08-28T08:36:33.481Z,25.35
2022-08-28T08:39:01.022Z,25.27
2022-08-28T08:41:32.061Z,25.33
2022-08-28T08:44:04.742Z,25.31
2022-08-28T08:46:41.493Z,25.24
2022-08-28T08:49:16.026Z,25.27
2022-08-28T08:52:11.859Z,25.28
2022-08-28T08:54:44.064Z,25.25
2022-08-28T08:57:14.907Z,25.28
2022-08-28T08:59:42.235Z,25.36
2022-08-28T09:02:14.532Z,25.40
2022-08-28T09:05:00.000Z,25.74
2022-08-28T09:07:34.308Z,26.31
2022-08-28T09:10:00.954Z,26.44
2022-08-28T09:12:31.105Z,26.60
2022-08-28T09:15:09.874Z,26.73
2022-08-28T09:17:46.292Z,26.92
2022-08-28T09:20:16.266Z,26.95
2022-08-28T09:22:45.296Z,27.01
2022-08-28T09:25:33.220Z,27.07
2022-08-28T09:28:08.405Z,27.20
2022-08-28T09:30:42.084Z,27.06
2022-08-28T09:33:08.751Z,26.90
2022-08-28T09:35:37.561Z,26.95
2022-08-28T09:38:27.601Z,26.97
2022-08-28T09:41:31.351Z,27.16
2022-08-28T09:43:58.205Z,27.41
2022-08-28T09:46:30.318Z,27.79
2022-08-28T09:49:13.368Z,27.82
2022-08-28T09:51:40.961Z,28.01
2022-08-28T09:54:22.642Z,28.11
2022-08-28T09:56:50.522Z,28.49
2022-08-28T09:59:22.791Z,28.59
2022-08-28T10:01:55.668Z,28.55
2022-08-28T10:04:59.999Z,28.31
2022-08-28T10:07:49.289Z,28.51
2022-08-28T10:10:38.629Z,29.01
2022-08-28T10:13:16.138Z,29.43
2022-08-28T10:16:00.839Z,29.82
2022-08-28T10:18:45.401Z,30.24
2022-08-28T10:21:20.647Z,30.08
2022-08-28T10:24:09.093Z,30.73
2022-08-28T10:26:48.691Z,31.08
2022-08-28T10:29:45.280Z,30.37
2022-08-28T10:32:30.658Z,30.43
2022-08-28T10:35:09.325Z,31.38
2022-08-28T10:37:54.860Z,31.36
2022-08-28T10:40:50.256Z,30.96
2022-08-28T10:43:25.762Z,30.84
2022-08-28T10:45:53.040Z,31.19
2022-08-28T10:48:29.251Z,30.93
2022-08-28T10:51:07.316Z,32.14
2022-08-28T10:53:45.708Z,32.80
2022-08-28T10:56:20.847Z,32.32
2022-08-28T10:58:51.840Z,33.41
2022-08-28T11:01:40.301Z,33.13
2022-08-28T11:04:24.859Z,31.77
2022-08-28T11:07:09.345Z,33.60
2022-08-28T11:09:43.036Z,32.58
2022-08-28T11:12:29.797Z,32.46
2022-08-28T11:14:56.519Z,33.23
2022-08-28T11:17:25.152Z,33.67
2022-08-28T11:20:13.768Z,33.24
2022-08-28T11:22:46.269Z,32.02
2022-08-28T11:25:26.505Z,32.72
2022-08-28T11:28:23.952Z,32.60
2022-08-28T11:31:10.561Z,34.41
2022-08-28T11:33:50.732Z,34.75
2022-08-28T11:36:19.997Z,32.02
2022-08-28T11:38:52.311Z,30.92
2022-08-28T11:41:40.558Z,30.85
2022-08-28T11:44:11.094Z,30.52
2022-08-28T11:46:49.513Z,30.33
2022-08-28T11:49:27.824Z,31.26
2022-08-28T11:52:08.206Z,30.03
2022-08-28T11:55:13.441Z,29.98
2022-08-28T12:00:56.193Z,29.57
2022-08-28T12:03:35.781Z,29.56
2022-08-28T12:06:03.264Z,29.11
2022-08-28T12:08:45.147Z,28.65
2022-08-28T12:11:40.825Z,29.06
2022-08-28T12:14:25.480Z,29.53
2022-08-28T12:17:05.214Z,29.58
2022-08-28T12:19:55.279Z,28.97
2022-08-28T12:22:26.852Z,28.80
2022-08-28T12:25:04.561Z,28.83
2022-08-28T12:27:32.021Z,28.82
2022-08-28T12:30:02.650Z,29.22
2022-08-28T12:32:53.500Z,29.37
2022-08-28T12:35:23.566Z,29.60
2022-08-28T12:37:51.973Z,29.87
2022-08-28T12:40:21.714Z,29.99
2022-08-28T12:43:00.710Z,29.39
2022-08-28T12:45:36.373Z,29.36
2022-08-28T12:48:18.297Z,29.32
2022-08-28T12:50:45.055Z,29.86
2022-08-28T12:53:18.511Z,29.87
2022-08-28T12:55:46.683Z,29.66
2022-08-28T12:58:34.935Z,29.74
2022-08-28T13:01:16.817Z,29.61
2022-08-28T13:03:51.285Z,29.85
2022-08-28T13:06:29.002Z,29.86
2022-08-28T13:09:22.839Z,29.73
2022-08-28T13:11:51.579Z,29.88
2022-08-28T13:14:41.953Z,29.88
2022-08-28T13:17:10.248Z,29.68
2022-08-28T13:19:37.986Z,29.66
2022-08-28T13:22:26.148Z,29.53
2022-08-28T13:24:59.515Z,29.38
2022-08-28T13:27:26.485Z,29.14
2022-08-28T13:30:04.148Z,29.55
2022-08-28T13:32:34.041Z,29.79
2022-08-28T13:35:13.661Z,29.90
2022-08-28T13:37:43.873Z,29.72
2022-08-28T13:40:25.654Z,29.59
2022-08-28T13:43:07.111Z,29.46
2022-08-28T13:45:35.794Z,29.89
2022-08-28T13:48:18.461Z,29.31
2022-08-28T13:50:48.975Z,29.21
2022-08-28T13:53:18.435Z,29.04
2022-08-28T13:55:45.646Z,29.01
2022-08-28T13:58:13.939Z,28.92
2022-08-28T14:00:47.214Z,28.76
2022-08-28T14:03:33.048Z,28.60
2022-08-28T14:06:00.005Z,28.48
2022-08-28T14:08:26.761Z,28.51
2022-08-28T14:10:53.604Z,28.43
2022-08-28T14:13:23.041Z,28.76
2022-08-28T14:15:49.943Z,29.13
2022-08-28T14:18:18.122Z,29.27
2022-08-28T14:20:44.751Z,29.24
2022-08-28T14:23:12.363Z,28.93
2022-08-28T14:25:44.214Z,28.70
2022-08-28T14:28:11.640Z,28.90
2022-08-28T14:30:48.258Z,28.72
2022-08-28T14:33:18.678Z,28.85
2022-08-28T14:35:49.162Z,28.65
2022-08-28T14:38:16.540Z,28.56
2022-08-28T14:40:44.821Z,28.72
2022-08-28T14:43:13.519Z,28.98
2022-08-28T14:45:44.947Z,28.86
2022-08-28T14:48:12.011Z,28.90
2022-08-28T14:50:41.681Z,28.95
2022-08-28T14:53:09.715Z,28.80
2022-08-28T14:55:44.286Z,28.73
2022-08-28T14:58:12.605Z,28.58
2022-08-28T15:00:47.177Z,28.74
2022-08-28T15:03:15.222Z,28.71
2022-08-28T15:05:42.447Z,28.79
2022-08-28T15:08:11.549Z,28.76
2022-08-28T15:10:40.075Z,28.75
2022-08-28T15:13:07.714Z,28.66
2022-08-28T15:15:36.561Z,28.66
2022-08-28T15:18:03.188Z,28.62
2022-08-28T15:20:29.956Z,28.58
2022-08-28T15:22:56.721Z,28.50
2022-08-28T15:25:23.433Z,28.59
2022-08-28T15:27:50.055Z,28.63
2022-08-28T15:30:16.683Z,28.61
2022-08-28T15:32:46.110Z,28.65
2022-08-28T15:35:12.713Z,28.77
2022-08-28T15:37:39.331Z,28.78
2022-08-28T15:40:25.628Z,28.83
2022-08-28T15:42:52.430Z,28.74
2022-08-28T15:45:20.183Z,28.67
2022-08-28T15:47:46.966Z,28.61
2022-08-28T15:50:16.172Z,28.52
2022-08-28T15:52:46.814Z,28.46
2022-08-28T15:55:13.808Z,28.41
2022-08-28T15:57:40.425Z,28.35
2022-08-28T16:00:10.336Z,28.33
2022-08-28T16:02:37.376Z,28.32
2022-08-28T16:05:04.656Z,28.23
2022-08-28T16:07:31.337Z,28.20
2022-08-28T16:09:58.000Z,28.17
2022-08-28T16:12:25.490Z,28.09
2022-08-28T16:14:52.158Z,27.97
2022-08-28T16:17:19.018Z,27.93
2022-08-28T16:19:46.699Z,27.80
2022-08-28T16:22:17.104Z,27.80
2022-08-28T16:24:45.242Z,27.68
2022-08-28T16:27:15.417Z,27.67
2022-08-28T16:29:43.385Z,27.55
2022-08-28T16:32:11.713Z,27.53
2022-08-28T16:34:38.702Z,27.60
2022-08-28T16:37:08.011Z,27.50
2022-08-28T16:39:35.805Z,27.43
2022-08-28T16:42:02.769Z,27.38
2022-08-28T16:44:29.548Z,27.38
2022-08-28T16:46:56.391Z,27.35
2022-08-28T16:49:23.986Z,27.38
2022-08-28T16:51:51.458Z,27.37
2022-08-28T16:54:18.474Z,27.35
2022-08-28T16:56:45.891Z,27.30
2022-08-28T16:59:16.482Z,27.33
2022-08-28T17:01:43.474Z,27.33
2022-08-28T17:04:10.541Z,27.30
2022-08-28T17:06:37.161Z,27.29
2022-08-28T17:09:04.032Z,27.26
2022-08-28T17:11:31.098Z,27.22
2022-08-28T17:13:59.316Z,27.21
2022-08-28T17:16:31.259Z,27.22
2022-08-28T17:18:59.348Z,27.18
2022-08-28T17:21:44.727Z,27.20
2022-08-28T17:24:12.625Z,27.20
2022-08-28T17:26:40.708Z,27.08
2022-08-28T17:29:07.503Z,26.94
2022-08-28T17:31:34.397Z,27.01
2022-08-28T17:34:01.104Z,26.80
2022-08-28T17:36:33.282Z,26.61
2022-08-28T17:39:02.969Z,26.77
2022-08-28T17:41:29.674Z,26.70
2022-08-28T17:43:56.401Z,26.74
2022-08-28T17:46:23.062Z,26.71
2022-08-28T17:48:53.594Z,26.78
2022-08-28T17:51:41.859Z,26.69
2022-08-28T17:54:15.623Z,26.71
2022-08-28T17:56:42.560Z,26.66
2022-08-28T17:59:10.528Z,26.68
2022-08-28T18:01:37.869Z,26.61
2022-08-28T18:04:05.334Z,26.53
2022-08-28T18:06:35.256Z,26.47
2022-08-28T18:09:02.176Z,26.35
2022-08-28T18:11:28.836Z,26.25
2022-08-28T18:13:55.587Z,26.04
2022-08-28T18:16:23.823Z,26.03
2022-08-28T18:18:52.405Z,26.06
2022-08-28T18:21:20.124Z,26.04
2022-08-28T18:23:46.738Z,25.99
2022-08-28T18:26:13.669Z,25.91
2022-08-28T18:28:40.314Z,25.98
2022-08-28T18:31:08.130Z,25.94
2022-08-28T18:33:37.103Z,25.84
2022-08-28T18:36:07.410Z,25.76
2022-08-28T18:38:35.511Z,25.75
2022-08-28T18:41:04.690Z,25.80
2022-08-28T18:43:31.895Z,25.79
2022-08-28T18:46:02.469Z,25.74
2022-08-28T18:48:29.818Z,25.75
2022-08-28T18:50:56.484Z,25.60
2022-08-28T18:53:23.969Z,25.66
2022-08-28T18:55:53.781Z,25.66
2022-08-28T18:58:22.285Z,25.65
2022-08-28T19:00:49.490Z,25.60
2022-08-28T19:03:16.113Z,25.51
2022-08-28T19:05:42.773Z,25.52
2022-08-28T19:08:09.431Z,25.57
2022-08-28T19:10:37.889Z,25.49
2022-08-28T19:13:05.248Z,25.42
2022-08-28T19:15:33.279Z,25.40
2022-08-28T19:18:03.151Z,25.32
2022-08-28T19:20:30.265Z,25.27
2022-08-28T19:22:58.395Z,25.26
2022-08-28T19:25:29.260Z,25.30
2022-08-28T19:28:01.651Z,25.21
2022-08-28T19:30:32.900Z,25.19
2022-08-28T19:33:00.598Z,25.14
2022-08-28T19:35:28.043Z,25.08
2022-08-28T19:37:54.824Z,25.11
2022-08-28T19:40:22.838Z,25.18
2022-08-28T19:42:52.901Z,25.21
2022-08-28T19:45:19.781Z,25.26
2022-08-28T19:47:47.067Z,25.28
2022-08-28T19:50:14.964Z,25.34
2022-08-28T19:52:43.438Z,25.32
2022-08-28T19:55:17.685Z,25.33
2022-08-28T19:57:46.822Z,25.29
2022-08-28T20:00:15.273Z,25.27
2022-08-28T20:02:42.049Z,25.29
2022-08-28T20:05:09.914Z,25.31
2022-08-28T20:07:36.936Z,25.27
2022-08-28T20:10:04.156Z,25.28
2022-08-28T20:12:30.757Z,25.28
2022-08-28T20:15:01.352Z,25.28
2022-08-28T20:17:30.025Z,25.24
2022-08-28T20:20:02.403Z,25.25
2022-08-28T20:22:31.850Z,25.27
2022-08-28T20:24:59.514Z,25.24
2022-08-28T20:27:26.363Z,25.24
2022-08-28T20:29:53.061Z,25.21
2022-08-28T20:32:19.892Z,25.22
2022-08-28T20:34:46.500Z,25.14
2022-08-28T20:37:13.560Z,25.10
2022-08-28T20:39:41.664Z,25.08
2022-08-28T20:42:09.794Z,25.07
2022-08-28T20:44:36.542Z,25.10
2022-08-28T20:47:03.754Z,25.05
2022-08-28T20:49:30.382Z,24.98
2022-08-28T20:51:57.527Z,24.95
2022-08-28T20:54:34.397Z,24.95
2022-08-28T20:57:04.566Z,25.00
2022-08-28T20:59:35.534Z,24.94
2022-08-28T21:02:09.351Z,24.91
2022-08-28T21:04:38.814Z,24.92
2022-08-28T21:07:06.076Z,24.92
2022-08-28T21:09:36.661Z,24.87
2022-08-28T21:12:19.903Z,24.90
2022-08-28T21:14:51.437Z,24.87
2022-08-28T21:17:29.143Z,24.90
2022-08-28T21:20:05.764Z,24.90
2022-08-28T21:22:35.127Z,24.97
2022-08-28T21:25:02.909Z,25.05
2022-08-28T21:27:29.878Z,25.03
2022-08-28T21:30:00.275Z,24.99
2022-08-28T21:32:28.835Z,24.93
2022-08-28T21:34:55.532Z,24.89
2022-08-28T21:37:23.027Z,24.87
2022-08-28T21:39:49.828Z,24.85
2022-08-28T21:42:16.476Z,24.81
2022-08-28T21:44:48.336Z,24.82
2022-08-28T21:47:19.630Z,24.82
2022-08-28T21:49:49.493Z,24.86
2022-08-28T21:52:18.571Z,24.84
2022-08-28T21:54:45.321Z,24.85
2022-08-28T21:57:11.934Z,24.83
2022-08-28T21:59:39.025Z,24.73
2022-08-28T22:02:06.414Z,24.68
2022-08-28T22:04:34.841Z,24.68
2022-08-28T22:07:01.858Z,24.74
2022-08-28T22:09:29.064Z,24.84
2022-08-28T22:11:55.692Z,24.89
2022-08-28T22:14:25.148Z,24.88
2022-08-28T22:16:52.332Z,24.83
2022-08-28T22:19:19.106Z,24.88
2022-08-28T22:22:04.184Z,24.90
2022-08-28T22:24:30.851Z,24.90
2022-08-28T22:26:57.898Z,24.89
2022-08-28T22:29:25.502Z,24.92
2022-08-28T22:31:52.700Z,25.00
2022-08-28T22:34:19.607Z,24.96
2022-08-28T22:36:46.226Z,24.92
2022-08-28T22:39:12.885Z,24.89
2022-08-28T22:41:40.415Z,24.88
2022-08-28T22:44:07.681Z,24.92
2022-08-28T22:46:34.655Z,24.90
2022-08-28T22:49:01.399Z,24.90
2022-08-28T22:51:28.042Z,24.86
2022-08-28T22:53:56.028Z,24.86
2022-08-28T22:56:22.636Z,24.86
2022-08-28T22:58:49.363Z,24.85
2022-08-28T23:01:22.508Z,24.90
2022-08-28T23:03:50.103Z,24.85
2022-08-28T23:06:17.158Z,24.86
2022-08-28T23:08:44.081Z,24.81
2022-08-28T23:11:11.048Z,24.84
2022-08-28T23:13:38.002Z,24.87
2022-08-28T23:16:05.128Z,24.84
2022-08-28T23:18:41.781Z,24.85
2022-08-28T23:21:20.132Z,24.88
2022-08-28T23:23:47.122Z,24.93
2022-08-28T23:26:15.886Z,24.92
2022-08-28T23:28:44.361Z,24.90
2022-08-28T23:31:10.973Z,24.91
2022-08-28T23:33:37.643Z,24.87
2022-08-28T23:36:05.121Z,24.85
2022-08-28T23:38:31.749Z,24.80
2022-08-28T23:40:58.691Z,24.78
2022-08-28T23:43:25.298Z,24.73
2022-08-28T23:45:52.152Z,24.73
2022-08-28T23:48:18.958Z,24.74
2022-08-28T23:50:45.699Z,24.72
2022-08-28T23:53:12.351Z,24.73
2022-08-28T23:55:40.679Z,24.76
2022-08-28T23:58:07.310Z,24.70
